sensor_id;sensor_type;location;lat;lon;timestamp;P1;durP1;ratioP1;P2;durP2;ratioP2
5349;SDS011;2697;42.144;24.794;2023-04-15T00:01:02;7.70;;;3.77;;
5349;SDS011;2697;42.144;24.794;2023-04-15T00:03:29;8.13;;;3.80;;
5349;SDS011;2697;42.144;24.794;2023-04-15T00:05:55;6.93;;;3.47;;
5349;SDS011;2697;42.144;24.794;2023-04-15T00:08:21;6.70;;;4.27;;
5349;SDS011;2697;42.144;24.794;2023-04-15T00:10:47;8.63;;;3.43;;
5349;SDS011;2697;42.144;24.794;2023-04-15T00:13:13;9.00;;;3.77;;
5349;SDS011;2697;42.144;24.794;2023-04-15T00:15:39;8.53;;;4.00;;
5349;SDS011;2697;42.144;24.794;2023-04-15T00:18:05;11.87;;;4.23;;
5349;SDS011;2697;42.144;24.794;2023-04-15T00:20:32;9.87;;;4.37;;
5349;SDS011;2697;42.144;24.794;2023-04-15T00:22:58;7.83;;;4.17;;
5349;SDS011;2697;42.144;24.794;2023-04-15T00:25:24;4.53;;;3.47;;
5349;SDS011;2697;42.144;24.794;2023-04-15T00:27:50;7.97;;;3.97;;
5349;SDS011;2697;42.144;24.794;2023-04-15T00:30:15;10.53;;;4.90;;
5349;SDS011;2697;42.144;24.794;2023-04-15T00:32:40;8.60;;;4.47;;
5349;SDS011;2697;42.144;24.794;2023-04-15T00:35:06;6.07;;;4.00;;
5349;SDS011;2697;42.144;24.794;2023-04-15T00:37:32;6.90;;;3.73;;
5349;SDS011;2697;42.144;24.794;2023-04-15T00:39:59;6.00;;;3.70;;
5349;SDS011;2697;42.144;24.794;2023-04-15T00:42:24;9.50;;;4.23;;
5349;SDS011;2697;42.144;24.794;2023-04-15T00:44:50;6.93;;;4.30;;
5349;SDS011;2697;42.144;24.794;2023-04-15T00:47:16;6.57;;;4.17;;
5349;SDS011;2697;42.144;24.794;2023-04-15T00:49:42;19.80;;;4.90;;
5349;SDS011;2697;42.144;24.794;2023-04-15T00:52:08;10.83;;;4.47;;
5349;SDS011;2697;42.144;24.794;2023-04-15T00:54:33;7.57;;;4.23;;
5349;SDS011;2697;42.144;24.794;2023-04-15T00:56:59;7.20;;;4.37;;
5349;SDS011;2697;42.144;24.794;2023-04-15T00:59:25;5.27;;;4.00;;
5349;SDS011;2697;42.144;24.794;2023-04-15T01:01:51;11.37;;;4.40;;
5349;SDS011;2697;42.144;24.794;2023-04-15T01:04:17;9.87;;;4.20;;
5349;SDS011;2697;42.144;24.794;2023-04-15T01:06:42;15.73;;;4.63;;
5349;SDS011;2697;42.144;24.794;2023-04-15T01:09:08;7.90;;;4.70;;
5349;SDS011;2697;42.144;24.794;2023-04-15T01:11:33;8.40;;;4.30;;
5349;SDS011;2697;42.144;24.794;2023-04-15T01:13:59;10.43;;;4.67;;
5349;SDS011;2697;42.144;24.794;2023-04-15T01:16:25;9.33;;;5.50;;
5349;SDS011;2697;42.144;24.794;2023-04-15T01:18:52;10.90;;;5.80;;
5349;SDS011;2697;42.144;24.794;2023-04-15T01:21:18;8.40;;;4.90;;
5349;SDS011;2697;42.144;24.794;2023-04-15T01:23:44;8.13;;;5.07;;
5349;SDS011;2697;42.144;24.794;2023-04-15T01:26:11;7.90;;;5.40;;
5349;SDS011;2697;42.144;24.794;2023-04-15T01:28:37;7.90;;;5.03;;
5349;SDS011;2697;42.144;24.794;2023-04-15T01:31:06;10.60;;;4.80;;
5349;SDS011;2697;42.144;24.794;2023-04-15T01:33:39;7.80;;;3.67;;
5349;SDS011;2697;42.144;24.794;2023-04-15T01:36:06;16.73;;;4.80;;
5349;SDS011;2697;42.144;24.794;2023-04-15T01:38:34;13.07;;;5.20;;
5349;SDS011;2697;42.144;24.794;2023-04-15T01:41:00;6.97;;;3.87;;
5349;SDS011;2697;42.144;24.794;2023-04-15T01:43:25;8.80;;;4.43;;
5349;SDS011;2697;42.144;24.794;2023-04-15T01:45:51;7.90;;;4.20;;
5349;SDS011;2697;42.144;24.794;2023-04-15T01:48:16;8.90;;;5.70;;
5349;SDS011;2697;42.144;24.794;2023-04-15T01:50:42;11.67;;;5.20;;
5349;SDS011;2697;42.144;24.794;2023-04-15T01:53:08;5.23;;;3.90;;
5349;SDS011;2697;42.144;24.794;2023-04-15T01:55:33;13.03;;;5.70;;
5349;SDS011;2697;42.144;24.794;2023-04-15T01:57:59;9.63;;;4.83;;
5349;SDS011;2697;42.144;24.794;2023-04-15T02:00:25;11.73;;;5.47;;
5349;SDS011;2697;42.144;24.794;2023-04-15T02:02:51;8.20;;;5.33;;
5349;SDS011;2697;42.144;24.794;2023-04-15T02:05:17;7.37;;;4.37;;
5349;SDS011;2697;42.144;24.794;2023-04-15T02:07:42;13.53;;;4.80;;
5349;SDS011;2697;42.144;24.794;2023-04-15T02:10:08;8.77;;;4.73;;
5349;SDS011;2697;42.144;24.794;2023-04-15T02:12:34;6.97;;;4.40;;
5349;SDS011;2697;42.144;24.794;2023-04-15T02:15:00;6.80;;;4.40;;
5349;SDS011;2697;42.144;24.794;2023-04-15T02:17:26;5.13;;;3.83;;
5349;SDS011;2697;42.144;24.794;2023-04-15T02:19:51;5.03;;;3.17;;
5349;SDS011;2697;42.144;24.794;2023-04-15T02:22:16;7.50;;;4.37;;
5349;SDS011;2697;42.144;24.794;2023-04-15T02:24:42;7.17;;;4.50;;
5349;SDS011;2697;42.144;24.794;2023-04-15T02:27:10;16.43;;;3.73;;
5349;SDS011;2697;42.144;24.794;2023-04-15T02:29:36;8.07;;;4.17;;
5349;SDS011;2697;42.144;24.794;2023-04-15T02:32:02;4.97;;;3.40;;
5349;SDS011;2697;42.144;24.794;2023-04-15T02:34:27;5.87;;;4.33;;
5349;SDS011;2697;42.144;24.794;2023-04-15T02:36:52;5.80;;;3.50;;
5349;SDS011;2697;42.144;24.794;2023-04-15T02:39:21;6.67;;;3.10;;
5349;SDS011;2697;42.144;24.794;2023-04-15T02:41:47;6.73;;;3.73;;
5349;SDS011;2697;42.144;24.794;2023-04-15T02:44:16;5.40;;;3.67;;
5349;SDS011;2697;42.144;24.794;2023-04-15T02:46:44;9.20;;;3.70;;
5349;SDS011;2697;42.144;24.794;2023-04-15T02:49:12;13.87;;;4.27;;
5349;SDS011;2697;42.144;24.794;2023-04-15T02:51:38;6.90;;;3.20;;
5349;SDS011;2697;42.144;24.794;2023-04-15T02:54:03;6.43;;;3.43;;
5349;SDS011;2697;42.144;24.794;2023-04-15T02:56:29;8.10;;;4.23;;
5349;SDS011;2697;42.144;24.794;2023-04-15T02:58:54;5.63;;;2.90;;
5349;SDS011;2697;42.144;24.794;2023-04-15T03:01:20;6.57;;;3.10;;
5349;SDS011;2697;42.144;24.794;2023-04-15T03:03:46;4.17;;;3.20;;
5349;SDS011;2697;42.144;24.794;2023-04-15T03:06:11;4.57;;;3.17;;
5349;SDS011;2697;42.144;24.794;2023-04-15T03:08:36;12.03;;;3.93;;
5349;SDS011;2697;42.144;24.794;2023-04-15T03:11:02;8.43;;;3.10;;
5349;SDS011;2697;42.144;24.794;2023-04-15T03:13:28;6.57;;;3.70;;
5349;SDS011;2697;42.144;24.794;2023-04-15T03:15:53;7.83;;;3.10;;
5349;SDS011;2697;42.144;24.794;2023-04-15T03:18:19;6.53;;;3.00;;
5349;SDS011;2697;42.144;24.794;2023-04-15T03:20:44;5.60;;;3.20;;
5349;SDS011;2697;42.144;24.794;2023-04-15T03:23:10;11.30;;;2.90;;
5349;SDS011;2697;42.144;24.794;2023-04-15T03:25:35;10.57;;;2.83;;
5349;SDS011;2697;42.144;24.794;2023-04-15T03:28:01;3.23;;;2.33;;
5349;SDS011;2697;42.144;24.794;2023-04-15T03:30:27;4.73;;;2.80;;
5349;SDS011;2697;42.144;24.794;2023-04-15T03:32:53;5.27;;;2.50;;
5349;SDS011;2697;42.144;24.794;2023-04-15T03:35:18;9.30;;;2.63;;
5349;SDS011;2697;42.144;24.794;2023-04-15T03:37:44;3.70;;;2.57;;
5349;SDS011;2697;42.144;24.794;2023-04-15T03:40:09;8.63;;;2.50;;
5349;SDS011;2697;42.144;24.794;2023-04-15T03:42:35;3.20;;;1.90;;
5349;SDS011;2697;42.144;24.794;2023-04-15T03:45:00;10.00;;;2.70;;
5349;SDS011;2697;42.144;24.794;2023-04-15T03:47:26;4.40;;;2.40;;
5349;SDS011;2697;42.144;24.794;2023-04-15T03:49:51;4.90;;;1.80;;
5349;SDS011;2697;42.144;24.794;2023-04-15T03:52:16;10.83;;;2.17;;
5349;SDS011;2697;42.144;24.794;2023-04-15T03:54:42;3.97;;;1.90;;
5349;SDS011;2697;42.144;24.794;2023-04-15T03:57:07;5.73;;;2.80;;
5349;SDS011;2697;42.144;24.794;2023-04-15T03:59:33;5.13;;;3.13;;
5349;SDS011;2697;42.144;24.794;2023-04-15T04:01:58;10.33;;;3.23;;
5349;SDS011;2697;42.144;24.794;2023-04-15T04:04:23;3.23;;;2.60;;
5349;SDS011;2697;42.144;24.794;2023-04-15T04:06:49;3.90;;;2.50;;
5349;SDS011;2697;42.144;24.794;2023-04-15T04:09:14;5.27;;;2.80;;
5349;SDS011;2697;42.144;24.794;2023-04-15T04:11:40;5.53;;;2.67;;
5349;SDS011;2697;42.144;24.794;2023-04-15T04:14:05;4.13;;;2.70;;
5349;SDS011;2697;42.144;24.794;2023-04-15T04:16:30;4.60;;;2.20;;
5349;SDS011;2697;42.144;24.794;2023-04-15T04:18:56;3.10;;;2.07;;
5349;SDS011;2697;42.144;24.794;2023-04-15T04:21:21;7.90;;;2.70;;
5349;SDS011;2697;42.144;24.794;2023-04-15T04:23:47;5.37;;;2.50;;
5349;SDS011;2697;42.144;24.794;2023-04-15T04:26:12;3.33;;;2.70;;
5349;SDS011;2697;42.144;24.794;2023-04-15T04:28:37;11.13;;;2.73;;
5349;SDS011;2697;42.144;24.794;2023-04-15T04:31:05;7.23;;;4.90;;
5349;SDS011;2697;42.144;24.794;2023-04-15T04:33:31;14.07;;;3.27;;
5349;SDS011;2697;42.144;24.794;2023-04-15T04:35:57;8.00;;;4.03;;
5349;SDS011;2697;42.144;24.794;2023-04-15T04:38:22;11.10;;;3.57;;
5349;SDS011;2697;42.144;24.794;2023-04-15T04:40:47;4.70;;;3.07;;
5349;SDS011;2697;42.144;24.794;2023-04-15T04:43:13;8.57;;;3.07;;
5349;SDS011;2697;42.144;24.794;2023-04-15T04:45:39;18.47;;;3.00;;
5349;SDS011;2697;42.144;24.794;2023-04-15T04:48:05;15.37;;;3.47;;
5349;SDS011;2697;42.144;24.794;2023-04-15T04:50:32;8.33;;;2.90;;
5349;SDS011;2697;42.144;24.794;2023-04-15T04:52:58;6.00;;;2.47;;
5349;SDS011;2697;42.144;24.794;2023-04-15T04:55:24;7.90;;;3.07;;
5349;SDS011;2697;42.144;24.794;2023-04-15T04:57:49;6.53;;;2.50;;
5349;SDS011;2697;42.144;24.794;2023-04-15T05:00:15;7.40;;;2.13;;
5349;SDS011;2697;42.144;24.794;2023-04-15T05:02:41;3.43;;;2.47;;
5349;SDS011;2697;42.144;24.794;2023-04-15T05:05:08;5.33;;;2.90;;
5349;SDS011;2697;42.144;24.794;2023-04-15T05:07:34;3.60;;;2.37;;
5349;SDS011;2697;42.144;24.794;2023-04-15T05:09:59;6.30;;;2.23;;
5349;SDS011;2697;42.144;24.794;2023-04-15T05:12:25;7.67;;;2.70;;
5349;SDS011;2697;42.144;24.794;2023-04-15T05:14:50;6.83;;;2.73;;
5349;SDS011;2697;42.144;24.794;2023-04-15T05:17:16;9.90;;;2.80;;
5349;SDS011;2697;42.144;24.794;2023-04-15T05:19:41;3.83;;;2.17;;
5349;SDS011;2697;42.144;24.794;2023-04-15T05:22:07;3.80;;;2.40;;
5349;SDS011;2697;42.144;24.794;2023-04-15T05:24:32;7.63;;;3.23;;
5349;SDS011;2697;42.144;24.794;2023-04-15T05:26:57;6.60;;;3.20;;
5349;SDS011;2697;42.144;24.794;2023-04-15T05:29:23;12.33;;;3.10;;
5349;SDS011;2697;42.144;24.794;2023-04-15T05:31:48;10.73;;;4.50;;
5349;SDS011;2697;42.144;24.794;2023-04-15T05:34:14;2.87;;;2.20;;
5349;SDS011;2697;42.144;24.794;2023-04-15T05:36:40;9.23;;;4.40;;
5349;SDS011;2697;42.144;24.794;2023-04-15T05:39:06;6.17;;;2.77;;
5349;SDS011;2697;42.144;24.794;2023-04-15T05:41:31;10.37;;;2.83;;
5349;SDS011;2697;42.144;24.794;2023-04-15T05:43:57;6.87;;;2.60;;
5349;SDS011;2697;42.144;24.794;2023-04-15T05:46:22;3.63;;;2.53;;
5349;SDS011;2697;42.144;24.794;2023-04-15T05:48:47;14.00;;;4.50;;
5349;SDS011;2697;42.144;24.794;2023-04-15T05:51:13;12.43;;;3.73;;
5349;SDS011;2697;42.144;24.794;2023-04-15T05:53:38;12.30;;;2.10;;
5349;SDS011;2697;42.144;24.794;2023-04-15T05:56:05;12.70;;;2.20;;
5349;SDS011;2697;42.144;24.794;2023-04-15T05:58:31;5.97;;;2.50;;
5349;SDS011;2697;42.144;24.794;2023-04-15T06:00:57;8.43;;;2.63;;
5349;SDS011;2697;42.144;24.794;2023-04-15T06:03:22;4.00;;;2.10;;
5349;SDS011;2697;42.144;24.794;2023-04-15T06:05:48;3.50;;;2.00;;
5349;SDS011;2697;42.144;24.794;2023-04-15T06:08:13;2.37;;;1.93;;
5349;SDS011;2697;42.144;24.794;2023-04-15T06:10:39;8.90;;;2.20;;
5349;SDS011;2697;42.144;24.794;2023-04-15T06:13:04;5.83;;;1.97;;
5349;SDS011;2697;42.144;24.794;2023-04-15T06:15:30;13.23;;;2.60;;
5349;SDS011;2697;42.144;24.794;2023-04-15T06:17:56;5.47;;;2.10;;
5349;SDS011;2697;42.144;24.794;2023-04-15T06:20:21;4.80;;;2.23;;
5349;SDS011;2697;42.144;24.794;2023-04-15T06:22:47;11.60;;;2.33;;
5349;SDS011;2697;42.144;24.794;2023-04-15T06:25:13;5.63;;;2.30;;
5349;SDS011;2697;42.144;24.794;2023-04-15T06:27:39;4.63;;;2.30;;
5349;SDS011;2697;42.144;24.794;2023-04-15T06:30:04;15.13;;;2.27;;
5349;SDS011;2697;42.144;24.794;2023-04-15T06:32:31;10.10;;;3.17;;
5349;SDS011;2697;42.144;24.794;2023-04-15T06:34:56;2.83;;;2.00;;
5349;SDS011;2697;42.144;24.794;2023-04-15T06:37:22;5.20;;;2.10;;
5349;SDS011;2697;42.144;24.794;2023-04-15T06:39:47;3.43;;;2.13;;
5349;SDS011;2697;42.144;24.794;2023-04-15T06:42:13;6.90;;;2.20;;
5349;SDS011;2697;42.144;24.794;2023-04-15T06:44:40;8.03;;;2.40;;
5349;SDS011;2697;42.144;24.794;2023-04-15T06:47:05;3.23;;;2.30;;
5349;SDS011;2697;42.144;24.794;2023-04-15T06:49:31;4.70;;;1.90;;
5349;SDS011;2697;42.144;24.794;2023-04-15T06:51:57;4.07;;;2.13;;
5349;SDS011;2697;42.144;24.794;2023-04-15T06:54:24;4.43;;;2.73;;
5349;SDS011;2697;42.144;24.794;2023-04-15T06:56:50;5.47;;;2.80;;
5349;SDS011;2697;42.144;24.794;2023-04-15T06:59:16;5.73;;;2.40;;
5349;SDS011;2697;42.144;24.794;2023-04-15T07:01:41;8.10;;;2.80;;
5349;SDS011;2697;42.144;24.794;2023-04-15T07:04:07;8.80;;;3.47;;
5349;SDS011;2697;42.144;24.794;2023-04-15T07:06:32;4.13;;;2.30;;
5349;SDS011;2697;42.144;24.794;2023-04-15T07:08:59;12.23;;;3.03;;
5349;SDS011;2697;42.144;24.794;2023-04-15T07:11:25;9.40;;;3.20;;
5349;SDS011;2697;42.144;24.794;2023-04-15T07:13:51;4.70;;;2.70;;
5349;SDS011;2697;42.144;24.794;2023-04-15T07:16:16;4.67;;;2.40;;
5349;SDS011;2697;42.144;24.794;2023-04-15T07:18:42;37.60;;;6.27;;
5349;SDS011;2697;42.144;24.794;2023-04-15T07:21:07;31.17;;;3.27;;
5349;SDS011;2697;42.144;24.794;2023-04-15T07:23:33;5.07;;;2.60;;
5349;SDS011;2697;42.144;24.794;2023-04-15T07:25:58;4.77;;;2.20;;
5349;SDS011;2697;42.144;24.794;2023-04-15T07:28:24;9.20;;;2.47;;
5349;SDS011;2697;42.144;24.794;2023-04-15T07:30:50;5.97;;;2.53;;
5349;SDS011;2697;42.144;24.794;2023-04-15T07:33:15;8.53;;;2.37;;
5349;SDS011;2697;42.144;24.794;2023-04-15T07:35:41;13.10;;;3.20;;
5349;SDS011;2697;42.144;24.794;2023-04-15T07:38:06;12.03;;;2.47;;
5349;SDS011;2697;42.144;24.794;2023-04-15T07:40:32;3.70;;;1.50;;
5349;SDS011;2697;42.144;24.794;2023-04-15T07:42:58;3.23;;;1.90;;
5349;SDS011;2697;42.144;24.794;2023-04-15T07:45:23;3.63;;;1.70;;
5349;SDS011;2697;42.144;24.794;2023-04-15T07:47:49;3.33;;;1.37;;
5349;SDS011;2697;42.144;24.794;2023-04-15T07:50:15;5.20;;;2.40;;
5349;SDS011;2697;42.144;24.794;2023-04-15T07:52:41;7.03;;;2.37;;
5349;SDS011;2697;42.144;24.794;2023-04-15T07:55:07;3.30;;;1.70;;
5349;SDS011;2697;42.144;24.794;2023-04-15T07:57:33;5.90;;;2.00;;
5349;SDS011;2697;42.144;24.794;2023-04-15T07:59:59;12.93;;;3.03;;
5349;SDS011;2697;42.144;24.794;2023-04-15T08:02:25;5.43;;;2.53;;
5349;SDS011;2697;42.144;24.794;2023-04-15T08:04:51;16.23;;;3.37;;
5349;SDS011;2697;42.144;24.794;2023-04-15T08:07:18;4.63;;;2.93;;
5349;SDS011;2697;42.144;24.794;2023-04-15T08:09:43;6.27;;;3.10;;
5349;SDS011;2697;42.144;24.794;2023-04-15T08:12:08;6.60;;;3.00;;
5349;SDS011;2697;42.144;24.794;2023-04-15T08:14:37;6.57;;;3.10;;
5349;SDS011;2697;42.144;24.794;2023-04-15T08:17:02;4.40;;;2.87;;
5349;SDS011;2697;42.144;24.794;2023-04-15T08:19:28;14.63;;;4.00;;
5349;SDS011;2697;42.144;24.794;2023-04-15T08:21:54;13.33;;;3.37;;
5349;SDS011;2697;42.144;24.794;2023-04-15T08:24:20;9.90;;;3.80;;
5349;SDS011;2697;42.144;24.794;2023-04-15T08:26:45;12.83;;;3.30;;
5349;SDS011;2697;42.144;24.794;2023-04-15T08:29:11;5.30;;;2.40;;
5349;SDS011;2697;42.144;24.794;2023-04-15T08:31:36;5.03;;;3.10;;
5349;SDS011;2697;42.144;24.794;2023-04-15T08:34:02;11.33;;;4.00;;
5349;SDS011;2697;42.144;24.794;2023-04-15T08:36:28;8.07;;;3.27;;
5349;SDS011;2697;42.144;24.794;2023-04-15T08:38:53;9.70;;;3.93;;
5349;SDS011;2697;42.144;24.794;2023-04-15T08:41:22;5.90;;;3.40;;
5349;SDS011;2697;42.144;24.794;2023-04-15T08:43:55;7.50;;;4.00;;
5349;SDS011;2697;42.144;24.794;2023-04-15T08:46:22;7.33;;;2.97;;
5349;SDS011;2697;42.144;24.794;2023-04-15T08:48:49;7.63;;;3.27;;
5349;SDS011;2697;42.144;24.794;2023-04-15T08:51:15;15.00;;;4.30;;
5349;SDS011;2697;42.144;24.794;2023-04-15T08:53:42;2.90;;;2.30;;
5349;SDS011;2697;42.144;24.794;2023-04-15T08:56:08;7.17;;;3.83;;
5349;SDS011;2697;42.144;24.794;2023-04-15T08:58:35;5.57;;;3.00;;
5349;SDS011;2697;42.144;24.794;2023-04-15T09:01:02;6.27;;;3.00;;
5349;SDS011;2697;42.144;24.794;2023-04-15T09:03:27;4.70;;;2.87;;
5349;SDS011;2697;42.144;24.794;2023-04-15T09:05:54;5.90;;;2.83;;
5349;SDS011;2697;42.144;24.794;2023-04-15T09:08:21;6.90;;;2.80;;
5349;SDS011;2697;42.144;24.794;2023-04-15T09:10:46;5.63;;;2.20;;
5349;SDS011;2697;42.144;24.794;2023-04-15T09:13:12;7.73;;;3.20;;
5349;SDS011;2697;42.144;24.794;2023-04-15T09:15:37;5.80;;;3.13;;
5349;SDS011;2697;42.144;24.794;2023-04-15T09:18:03;11.33;;;3.00;;
5349;SDS011;2697;42.144;24.794;2023-04-15T09:20:29;6.57;;;3.47;;
5349;SDS011;2697;42.144;24.794;2023-04-15T09:23:02;7.60;;;2.90;;
5349;SDS011;2697;42.144;24.794;2023-04-15T09:25:36;5.60;;;2.77;;
5349;SDS011;2697;42.144;24.794;2023-04-15T09:28:02;6.10;;;2.93;;
5349;SDS011;2697;42.144;24.794;2023-04-15T09:30:27;9.43;;;2.70;;
5349;SDS011;2697;42.144;24.794;2023-04-15T09:32:57;6.80;;;3.30;;
5349;SDS011;2697;42.144;24.794;2023-04-15T09:35:24;7.63;;;2.60;;
5349;SDS011;2697;42.144;24.794;2023-04-15T09:37:51;7.00;;;2.50;;
5349;SDS011;2697;42.144;24.794;2023-04-15T09:40:34;7.73;;;2.10;;
5349;SDS011;2697;42.144;24.794;2023-04-15T09:43:01;4.27;;;1.97;;
5349;SDS011;2697;42.144;24.794;2023-04-15T09:45:29;8.57;;;2.70;;
5349;SDS011;2697;42.144;24.794;2023-04-15T09:47:58;5.70;;;2.30;;
5349;SDS011;2697;42.144;24.794;2023-04-15T09:50:40;5.33;;;1.97;;
5349;SDS011;2697;42.144;24.794;2023-04-15T09:53:08;4.23;;;1.30;;
5349;SDS011;2697;42.144;24.794;2023-04-15T09:55:35;4.80;;;1.63;;
5349;SDS011;2697;42.144;24.794;2023-04-15T09:58:00;14.20;;;1.83;;
5349;SDS011;2697;42.144;24.794;2023-04-15T10:00:25;6.93;;;1.70;;
5349;SDS011;2697;42.144;24.794;2023-04-15T10:02:53;3.03;;;1.77;;
5349;SDS011;2697;42.144;24.794;2023-04-15T10:05:19;8.03;;;2.30;;
5349;SDS011;2697;42.144;24.794;2023-04-15T10:07:45;5.20;;;1.93;;
5349;SDS011;2697;42.144;24.794;2023-04-15T10:10:11;7.10;;;3.27;;
5349;SDS011;2697;42.144;24.794;2023-04-15T10:12:37;10.90;;;3.33;;
5349;SDS011;2697;42.144;24.794;2023-04-15T10:15:06;6.63;;;2.03;;
5349;SDS011;2697;42.144;24.794;2023-04-15T10:17:40;6.97;;;3.87;;
5349;SDS011;2697;42.144;24.794;2023-04-15T10:20:08;5.97;;;2.90;;
5349;SDS011;2697;42.144;24.794;2023-04-15T10:22:34;8.60;;;3.10;;
5349;SDS011;2697;42.144;24.794;2023-04-15T10:25:01;5.87;;;3.10;;
5349;SDS011;2697;42.144;24.794;2023-04-15T10:27:28;6.70;;;2.73;;
5349;SDS011;2697;42.144;24.794;2023-04-15T10:29:54;19.27;;;5.97;;
5349;SDS011;2697;42.144;24.794;2023-04-15T10:32:21;12.47;;;5.30;;
5349;SDS011;2697;42.144;24.794;2023-04-15T10:34:49;16.60;;;6.00;;
5349;SDS011;2697;42.144;24.794;2023-04-15T10:37:32;17.37;;;4.67;;
5349;SDS011;2697;42.144;24.794;2023-04-15T10:39:59;9.70;;;4.20;;
5349;SDS011;2697;42.144;24.794;2023-04-15T10:42:32;10.63;;;4.70;;
5349;SDS011;2697;42.144;24.794;2023-04-15T10:44:59;6.03;;;4.13;;
5349;SDS011;2697;42.144;24.794;2023-04-15T10:47:24;19.73;;;4.73;;
5349;SDS011;2697;42.144;24.794;2023-04-15T10:49:50;16.10;;;4.70;;
5349;SDS011;2697;42.144;24.794;2023-04-15T10:52:21;21.70;;;5.10;;
5349;SDS011;2697;42.144;24.794;2023-04-15T10:54:48;13.23;;;4.10;;
5349;SDS011;2697;42.144;24.794;2023-04-15T10:57:21;6.80;;;3.80;;
5349;SDS011;2697;42.144;24.794;2023-04-15T11:02:23;14.03;;;5.17;;
5349;SDS011;2697;42.144;24.794;2023-04-15T11:05:47;9.73;;;2.53;;
5349;SDS011;2697;42.144;24.794;2023-04-15T11:08:15;7.40;;;3.40;;
5349;SDS011;2697;42.144;24.794;2023-04-15T11:15:38;7.33;;;4.13;;
5349;SDS011;2697;42.144;24.794;2023-04-15T11:20:35;10.43;;;4.53;;
5349;SDS011;2697;42.144;24.794;2023-04-15T11:23:01;11.17;;;4.57;;
5349;SDS011;2697;42.144;24.794;2023-04-15T11:25:28;8.07;;;3.80;;
5349;SDS011;2697;42.144;24.794;2023-04-15T11:27:54;9.53;;;4.90;;
5349;SDS011;2697;42.144;24.794;2023-04-15T11:30:22;3.27;;;2.23;;
5349;SDS011;2697;42.144;24.794;2023-04-15T11:32:48;4.80;;;3.60;;
5349;SDS011;2697;42.144;24.794;2023-04-15T11:35:15;8.57;;;4.13;;
5349;SDS011;2697;42.144;24.794;2023-04-15T11:37:45;7.73;;;3.53;;
5349;SDS011;2697;42.144;24.794;2023-04-15T11:40:19;5.87;;;2.57;;
5349;SDS011;2697;42.144;24.794;2023-04-15T11:42:48;6.70;;;4.20;;
5349;SDS011;2697;42.144;24.794;2023-04-15T11:48:15;11.60;;;4.93;;
5349;SDS011;2697;42.144;24.794;2023-04-15T11:50:41;6.20;;;4.00;;
5349;SDS011;2697;42.144;24.794;2023-04-15T11:53:08;4.40;;;3.70;;
5349;SDS011;2697;42.144;24.794;2023-04-15T11:58:26;11.47;;;2.67;;
5349;SDS011;2697;42.144;24.794;2023-04-15T12:00:52;9.60;;;2.33;;
5349;SDS011;2697;42.144;24.794;2023-04-15T12:13:52;4.70;;;1.50;;
5349;SDS011;2697;42.144;24.794;2023-04-15T12:16:22;5.17;;;2.40;;
5349;SDS011;2697;42.144;24.794;2023-04-15T12:18:51;8.27;;;2.20;;
5349;SDS011;2697;42.144;24.794;2023-04-15T12:21:20;5.60;;;2.30;;
5349;SDS011;2697;42.144;24.794;2023-04-15T12:23:47;5.13;;;1.90;;
5349;SDS011;2697;42.144;24.794;2023-04-15T12:26:16;3.60;;;2.50;;
5349;SDS011;2697;42.144;24.794;2023-04-15T12:28:42;6.63;;;1.70;;
5349;SDS011;2697;42.144;24.794;2023-04-15T12:31:08;8.67;;;1.53;;
5349;SDS011;2697;42.144;24.794;2023-04-15T12:33:34;11.50;;;1.70;;
5349;SDS011;2697;42.144;24.794;2023-04-15T12:36:00;3.60;;;1.43;;
5349;SDS011;2697;42.144;24.794;2023-04-15T12:38:26;4.43;;;1.67;;
5349;SDS011;2697;42.144;24.794;2023-04-15T12:40:52;7.13;;;2.40;;
5349;SDS011;2697;42.144;24.794;2023-04-15T12:43:17;6.80;;;2.00;;
5349;SDS011;2697;42.144;24.794;2023-04-15T12:45:43;4.87;;;1.83;;
5349;SDS011;2697;42.144;24.794;2023-04-15T12:48:08;3.20;;;1.40;;
5349;SDS011;2697;42.144;24.794;2023-04-15T12:50:34;7.13;;;2.00;;
5349;SDS011;2697;42.144;24.794;2023-04-15T12:53:00;4.53;;;2.50;;
5349;SDS011;2697;42.144;24.794;2023-04-15T12:55:25;5.33;;;1.90;;
5349;SDS011;2697;42.144;24.794;2023-04-15T12:57:51;7.83;;;1.73;;
5349;SDS011;2697;42.144;24.794;2023-04-15T13:00:17;5.00;;;1.20;;
5349;SDS011;2697;42.144;24.794;2023-04-15T13:02:43;3.13;;;1.80;;
5349;SDS011;2697;42.144;24.794;2023-04-15T13:05:09;6.30;;;2.40;;
5349;SDS011;2697;42.144;24.794;2023-04-15T13:07:34;6.83;;;1.53;;
5349;SDS011;2697;42.144;24.794;2023-04-15T13:09:59;3.00;;;1.20;;
5349;SDS011;2697;42.144;24.794;2023-04-15T13:12:25;9.00;;;2.27;;
5349;SDS011;2697;42.144;24.794;2023-04-15T13:14:51;6.40;;;2.70;;
5349;SDS011;2697;42.144;24.794;2023-04-15T13:17:16;9.47;;;1.73;;
5349;SDS011;2697;42.144;24.794;2023-04-15T13:19:44;3.93;;;1.30;;
5349;SDS011;2697;42.144;24.794;2023-04-15T13:22:10;2.73;;;2.10;;
5349;SDS011;2697;42.144;24.794;2023-04-15T13:24:36;6.13;;;1.90;;
5349;SDS011;2697;42.144;24.794;2023-04-15T13:27:03;3.03;;;1.70;;
5349;SDS011;2697;42.144;24.794;2023-04-15T13:29:28;9.57;;;2.60;;
5349;SDS011;2697;42.144;24.794;2023-04-15T13:31:54;3.03;;;1.47;;
5349;SDS011;2697;42.144;24.794;2023-04-15T13:34:20;4.33;;;1.97;;
5349;SDS011;2697;42.144;24.794;2023-04-15T13:36:46;5.03;;;1.87;;
5349;SDS011;2697;42.144;24.794;2023-04-15T13:39:11;3.67;;;1.50;;
5349;SDS011;2697;42.144;24.794;2023-04-15T13:41:36;7.40;;;1.97;;
5349;SDS011;2697;42.144;24.794;2023-04-15T13:44:02;4.70;;;1.47;;
5349;SDS011;2697;42.144;24.794;2023-04-15T13:46:29;4.03;;;1.77;;
5349;SDS011;2697;42.144;24.794;2023-04-15T13:48:54;19.33;;;2.10;;
5349;SDS011;2697;42.144;24.794;2023-04-15T13:51:19;3.23;;;1.73;;
5349;SDS011;2697;42.144;24.794;2023-04-15T13:53:45;5.97;;;2.03;;
5349;SDS011;2697;42.144;24.794;2023-04-15T13:56:10;3.97;;;1.70;;
5349;SDS011;2697;42.144;24.794;2023-04-15T13:58:36;8.20;;;1.53;;
5349;SDS011;2697;42.144;24.794;2023-04-15T14:01:02;6.87;;;1.87;;
5349;SDS011;2697;42.144;24.794;2023-04-15T14:03:27;4.83;;;1.70;;
5349;SDS011;2697;42.144;24.794;2023-04-15T14:05:53;8.67;;;2.67;;
5349;SDS011;2697;42.144;24.794;2023-04-15T14:08:20;7.80;;;2.60;;
5349;SDS011;2697;42.144;24.794;2023-04-15T14:10:46;6.10;;;2.00;;
5349;SDS011;2697;42.144;24.794;2023-04-15T14:13:13;7.03;;;2.33;;
5349;SDS011;2697;42.144;24.794;2023-04-15T14:15:39;7.23;;;2.00;;
5349;SDS011;2697;42.144;24.794;2023-04-15T14:18:05;4.07;;;1.47;;
5349;SDS011;2697;42.144;24.794;2023-04-15T14:20:31;3.27;;;1.70;;
5349;SDS011;2697;42.144;24.794;2023-04-15T14:22:56;2.80;;;1.67;;
5349;SDS011;2697;42.144;24.794;2023-04-15T14:25:22;8.27;;;2.60;;
5349;SDS011;2697;42.144;24.794;2023-04-15T14:27:47;2.40;;;1.63;;
5349;SDS011;2697;42.144;24.794;2023-04-15T14:30:12;3.73;;;1.97;;
5349;SDS011;2697;42.144;24.794;2023-04-15T14:32:38;4.03;;;1.60;;
5349;SDS011;2697;42.144;24.794;2023-04-15T14:35:04;6.20;;;1.80;;
5349;SDS011;2697;42.144;24.794;2023-04-15T14:37:29;8.37;;;2.80;;
5349;SDS011;2697;42.144;24.794;2023-04-15T14:39:55;4.67;;;2.07;;
5349;SDS011;2697;42.144;24.794;2023-04-15T14:42:20;6.83;;;2.17;;
5349;SDS011;2697;42.144;24.794;2023-04-15T14:44:46;7.20;;;2.03;;
5349;SDS011;2697;42.144;24.794;2023-04-15T14:47:11;11.30;;;1.87;;
5349;SDS011;2697;42.144;24.794;2023-04-15T14:49:37;16.37;;;2.10;;
5349;SDS011;2697;42.144;24.794;2023-04-15T14:52:02;9.30;;;2.20;;
5349;SDS011;2697;42.144;24.794;2023-04-15T14:54:28;8.57;;;1.60;;
5349;SDS011;2697;42.144;24.794;2023-04-15T14:56:53;7.67;;;2.23;;
5349;SDS011;2697;42.144;24.794;2023-04-15T14:59:20;8.67;;;2.53;;
5349;SDS011;2697;42.144;24.794;2023-04-15T15:01:45;7.10;;;2.23;;
5349;SDS011;2697;42.144;24.794;2023-04-15T15:04:11;13.00;;;2.30;;
5349;SDS011;2697;42.144;24.794;2023-04-15T15:06:37;3.23;;;1.83;;
5349;SDS011;2697;42.144;24.794;2023-04-15T15:09:02;8.03;;;2.47;;
5349;SDS011;2697;42.144;24.794;2023-04-15T15:11:28;8.67;;;2.23;;
5349;SDS011;2697;42.144;24.794;2023-04-15T15:13:54;6.20;;;2.00;;
5349;SDS011;2697;42.144;24.794;2023-04-15T15:16:20;6.87;;;2.43;;
5349;SDS011;2697;42.144;24.794;2023-04-15T15:18:46;7.07;;;2.87;;